Time;durP1;ratioP1;P1;durP2;ratioP2;P2;SDS_P1;SDS_P2;PMS_P1;PMS_P2;Temp;Humidity;BMP_temperature;BMP_pressure;BME280_temperature;BME280_humidity;BME280_pressure;Samples;Min_cycle;Max_cycle;Signal;HPM_P1;HPM_P2
2022/06/22 00:00:49;;;;;;;4.30;2.00;;;;;;;12.33;67.80;96320.73;107245;1274;52998;-80
2022/06/22 00:03:21;;;;;;;2.90;2.00;;;;;;;12.38;67.83;96314.56;107298;1274;41473;-80
2022/06/22 00:05:53;;;;;;;5.60;2.00;;;;;;;12.42;67.81;96309.64;106340;1274;1280675;-80
2022/06/22 00:08:29;;;;;;;3.40;1.90;;;;;;;12.54;67.66;96306.43;107352;1274;35292;-80
2022/06/22 00:11:07;;;;;;;2.60;2.20;;;;;;;12.59;67.55;96310.00;107217;1275;87572;-79
2022/06/22 00:13:38;;;;;;;2.90;1.90;;;;;;;12.65;67.45;96302.84;107228;1274;53978;-80
2022/06/22 00:16:19;;;;;;;3.20;1.80;;;;;;;12.61;67.33;96299.75;107364;1273;35473;-80
2022/06/22 00:18:52;;;;;;;4.20;2.20;;;;;;;12.61;67.22;96300.00;107364;1274;33150;-80
2022/06/22 00:21:28;;;;;;;3.90;2.30;;;;;;;12.60;67.19;96301.30;107286;1274;82012;-80
2022/06/22 00:24:02;;;;;;;3.90;2.00;;;;;;;12.61;67.16;96303.14;107240;1275;58366;-79
2022/06/22 00:26:36;;;;;;;4.10;1.80;;;;;;;12.63;67.10;96295.85;107303;1277;49416;-79
2022/06/22 00:29:26;;;;;;;3.30;2.20;;;;;;;12.64;67.23;96295.08;107305;1274;34308;-80
2022/06/22 00:32:18;;;;;;;6.30;2.30;;;;;;;12.65;67.15;96298.09;107265;1274;94848;-80
2022/06/22 00:34:49;;;;;;;2.70;2.20;;;;;;;12.55;67.03;96304.98;107325;1275;32594;-80
2022/06/22 00:37:24;;;;;;;2.80;2.10;;;;;;;12.56;67.38;96303.08;107354;1274;34071;-80
2022/06/22 00:39:59;;;;;;;4.30;2.00;;;;;;;12.56;67.26;96302.52;107239;1275;102574;-80
2022/06/22 00:42:38;;;;;;;3.80;2.00;;;;;;;12.58;67.40;96304.80;107367;1274;42926;-79
2022/06/22 00:45:13;;;;;;;3.00;2.00;;;;;;;12.56;67.20;96314.05;107283;1275;68021;-80
2022/06/22 00:47:54;;;;;;;3.80;2.30;;;;;;;12.50;67.38;96319.70;107284;1274;54313;-80
2022/06/22 00:50:29;;;;;;;3.40;1.90;;;;;;;12.37;67.69;96323.62;107347;1274;34400;-80
2022/06/22 00:53:06;;;;;;;3.70;2.00;;;;;;;12.54;67.84;96329.13;107403;1273;34325;-80
2022/06/22 00:55:41;;;;;;;4.60;1.90;;;;;;;12.71;67.56;96331.08;107260;1274;57251;-79
2022/06/22 00:58:18;;;;;;;3.30;1.80;;;;;;;12.75;67.27;96335.19;107322;1274;33039;-80
2022/06/22 01:00:59;;;;;;;4.60;2.40;;;;;;;12.71;67.10;96340.66;107314;1274;35378;-80
2022/06/22 01:03:40;;;;;;;3.10;1.90;;;;;;;12.61;66.97;96343.45;107267;1274;49849;-79
2022/06/22 01:06:14;;;;;;;;;;;;;;;12.51;67.32;96344.61;107321;1275;39929;-80
2022/06/22 01:08:53;;;;;;;3.10;1.80;;;;;;;12.44;67.53;96346.04;107326;1274;35833;-80
2022/06/22 01:14:24;;;;;;;4.10;1.80;;;;;;;12.17;67.76;96354.63;107278;1274;48463;-80
2022/06/22 01:17:00;;;;;;;2.60;1.80;;;;;;;12.03;68.02;96354.77;107402;1274;42133;-80
2022/06/22 01:19:43;;;;;;;3.60;2.00;;;;;;;12.05;68.36;96361.16;107214;1274;69338;-79
2022/06/22 01:22:29;;;;;;;4.40;2.30;;;;;;;12.01;68.46;96360.61;107300;1274;40314;-80
2022/06/22 01:25:14;;;;;;;2.10;1.70;;;;;;;12.05;68.65;96360.42;107236;1274;44484;-78
2022/06/22 01:27:46;;;;;;;3.30;1.70;;;;;;;12.04;68.52;96358.00;107293;1274;46689;-80
2022/06/22 01:30:29;;;;;;;4.30;1.80;;;;;;;12.01;68.59;96358.27;107293;1274;46503;-80
2022/06/22 01:33:06;;;;;;;6.90;2.10;;;;;;;11.94;68.70;96354.29;107191;1274;87731;-79
2022/06/22 01:35:40;;;;;;;3.70;1.90;;;;;;;12.01;69.04;96352.89;107255;1275;58311;-79
2022/06/22 01:38:25;;;;;;;4.30;2.10;;;;;;;12.13;69.13;96352.42;107318;1273;45290;-79
2022/06/22 01:41:06;;;;;;;3.90;1.90;;;;;;;12.25;69.10;96350.91;107362;1273;63834;-80
2022/06/22 01:43:44;;;;;;;4.10;1.90;;;;;;;12.29;68.70;96350.96;107283;1275;44135;-79
2022/06/22 01:46:21;;;;;;;3.40;2.20;;;;;;;12.20;68.69;96350.63;107282;1275;35629;-80
2022/06/22 01:48:59;;;;;;;2.80;2.10;;;;;;;12.25;69.06;96355.32;107374;1274;42071;-80
2022/06/22 01:51:36;;;;;;;3.10;2.20;;;;;;;12.27;68.89;96357.15;107287;1274;46352;-80
2022/06/22 01:54:15;;;;;;;4.30;2.20;;;;;;;12.31;69.03;96357.70;107342;1274;36238;-80
2022/06/22 01:56:49;;;;;;;3.60;2.10;;;;;;;12.19;68.84;96359.06;107251;1274;69485;-80
2022/06/22 01:59:27;;;;;;;3.80;2.00;;;;;;;12.11;68.93;96356.81;107312;1274;67476;-80
2022/06/22 02:02:03;;;;;;;4.80;2.10;;;;;;;12.10;69.12;96353.69;107435;1274;29190;-79
2022/06/22 02:04:39;;;;;;;4.30;2.20;;;;;;;12.13;69.20;96362.90;107331;1274;45258;-80
2022/06/22 02:10:25;;;;;;;4.50;2.20;;;;;;;11.88;69.17;96368.95;107319;1274;43791;-80
2022/06/22 02:13:03;;;;;;;4.00;1.90;;;;;;;11.76;69.45;96366.52;107377;1274;42322;-80
2022/06/22 02:15:50;;;;;;;2.70;1.70;;;;;;;11.75;69.86;96371.20;107368;1274;32799;-79
2022/06/22 02:18:29;;;;;;;4.30;2.30;;;;;;;11.79;69.96;96373.62;107346;1274;35326;-80
2022/06/22 02:21:10;;;;;;;4.20;2.10;;;;;;;11.79;70.14;96375.63;107256;1275;51867;-79
2022/06/22 02:23:41;;;;;;;3.20;2.00;;;;;;;11.79;70.11;96373.33;107308;1274;41503;-80
2022/06/22 02:26:19;;;;;;;6.10;2.40;;;;;;;11.82;70.29;96370.70;107368;1274;34509;-80
2022/06/22 02:28:52;;;;;;;4.50;2.10;;;;;;;11.91;70.50;96368.95;107227;1274;80985;-80
2022/06/22 02:31:24;;;;;;;4.80;2.10;;;;;;;12.03;70.55;96366.27;107167;1274;103497;-80
2022/06/22 02:33:58;;;;;;;5.30;2.70;;;;;;;12.09;70.35;96366.30;107368;1274;35237;-80
2022/06/22 02:36:33;;;;;;;6.00;2.30;;;;;;;12.16;70.35;96373.93;107259;1274;69233;-78
2022/06/22 02:39:09;;;;;;;3.60;2.30;;;;;;;12.30;70.52;96371.23;107292;1274;50020;-79
2022/06/22 02:44:35;;;;;;;2.10;1.90;;;;;;;12.34;70.07;96376.31;107186;1274;78528;-79
2022/06/22 02:47:21;;;;;;;5.80;2.30;;;;;;;12.32;70.17;96382.05;107171;1274;60586;-80
2022/06/22 02:49:58;;;;;;;4.50;2.60;;;;;;;12.31;70.17;96386.91;107348;1274;33421;-79
2022/06/22 02:52:36;;;;;;;4.50;2.40;;;;;;;12.36;70.30;96385.10;105900;1274;1873067;-77
2022/06/22 02:55:10;;;;;;;3.60;2.50;;;;;;;12.51;70.31;96390.02;107223;1275;54857;-79
2022/06/22 02:57:47;;;;;;;5.70;2.60;;;;;;;12.61;70.13;96394.89;107334;1274;38272;-80
2022/06/22 03:00:20;;;;;;;3.70;2.30;;;;;;;12.69;70.10;96400.50;107348;1274;46771;-79
2022/06/22 03:02:56;;;;;;;5.40;2.60;;;;;;;12.64;70.12;96400.98;107308;1274;40849;-80
2022/06/22 03:05:28;;;;;;;4.50;2.60;;;;;;;12.74;70.23;96410.65;107383;1274;52096;-80
2022/06/22 03:08:02;;;;;;;5.10;2.60;;;;;;;12.81;70.09;96413.17;107257;1274;66842;-78
2022/06/22 03:10:41;;;;;;;5.60;3.00;;;;;;;12.80;69.89;96412.76;107360;1274;41698;-80
2022/06/22 03:13:16;;;;;;;6.90;3.10;;;;;;;12.86;69.98;96418.48;107319;1274;40082;-80
2022/06/22 03:15:48;;;;;;;7.40;3.10;;;;;;;12.94;69.88;96425.08;107341;1274;43263;-80
2022/06/22 03:18:24;;;;;;;4.20;2.60;;;;;;;13.02;69.83;96424.54;107195;1275;41843;-80
2022/06/22 03:21:04;;;;;;;6.00;2.80;;;;;;;13.09;69.70;96423.66;107339;1274;37261;-80
2022/06/22 03:23:44;;;;;;;4.60;2.60;;;;;;;13.10;69.82;96425.91;107305;1274;47463;-79
2022/06/22 03:26:19;;;;;;;6.90;3.50;;;;;;;13.12;69.68;96434.63;107201;1274;67941;-80
2022/06/22 03:28:58;;;;;;;6.40;3.00;;;;;;;13.20;69.61;96442.14;107311;1274;34085;-80
2022/06/22 03:31:34;;;;;;;4.20;2.90;;;;;;;13.31;69.41;96442.34;107333;1274;47235;-78
2022/06/22 03:34:10;;;;;;;6.90;2.80;;;;;;;13.42;69.33;96438.44;107258;1275;56622;-79
2022/06/22 03:36:46;;;;;;;8.90;3.10;;;;;;;13.47;69.02;96437.98;107290;1274;38422;-80
2022/06/22 03:39:21;;;;;;;6.70;3.10;;;;;;;13.48;68.96;96435.35;107158;1275;60909;-80
2022/06/22 03:41:57;;;;;;;5.40;2.50;;;;;;;13.48;68.96;96434.50;107353;1275;36945;-79
2022/06/22 03:44:31;;;;;;;7.20;3.60;;;;;;;13.48;68.81;96427.27;107375;1275;31536;-80
2022/06/22 03:47:09;;;;;;;8.10;3.10;;;;;;;13.47;68.64;96423.91;107133;1274;121149;-79
2022/06/22 03:49:43;;;;;;;5.60;3.20;;;;;;;13.49;68.68;96430.00;107281;1274;54840;-79
2022/06/22 03:52:18;;;;;;;4.80;2.90;;;;;;;13.50;68.63;96424.39;107248;1275;38209;-80
2022/06/22 03:54:56;;;;;;;7.90;3.30;;;;;;;13.49;68.51;96423.61;107128;1275;92589;-80
2022/06/22 03:57:30;;;;;;;6.70;3.10;;;;;;;13.50;68.69;96423.69;107385;1274;38710;-79
2022/06/22 04:00:02;;;;;;;8.80;3.70;;;;;;;13.53;68.72;96432.28;107393;1274;34232;-79
2022/06/22 04:02:35;;;;;;;6.30;3.00;;;;;;;13.56;68.63;96431.36;107368;1274;43387;-81
2022/06/22 04:05:14;;;;;;;8.00;3.40;;;;;;;13.59;68.77;96426.89;107316;1274;58874;-79
2022/06/22 04:07:46;;;;;;;8.60;4.00;;;;;;;13.60;68.54;96422.05;107318;1274;32786;-80
2022/06/22 04:10:38;;;;;;;9.30;3.90;;;;;;;13.60;68.38;96419.63;107291;1273;35156;-80
2022/06/22 04:13:17;;;;;;;6.00;3.60;;;;;;;13.69;68.41;96417.95;107286;1274;56589;-80
2022/06/22 04:15:54;;;;;;;6.10;3.10;;;;;;;13.81;68.71;96417.13;107318;1274;34691;-80
2022/06/22 04:18:30;;;;;;;8.50;3.10;;;;;;;13.87;68.37;96422.99;107355;1274;48464;-80
2022/06/22 04:21:05;;;;;;;7.40;4.10;;;;;;;13.93;68.14;96416.15;107197;1274;81413;-80
2022/06/22 04:23:41;;;;;;;7.20;3.70;;;;;;;13.96;67.78;96410.13;107320;1274;44066;-80
2022/06/22 04:26:17;;;;;;;7.90;3.90;;;;;;;14.07;67.99;96411.80;107302;1275;31798;-80
2022/06/22 04:28:52;;;;;;;6.70;4.00;;;;;;;14.09;67.56;96419.21;107323;1274;33909;-80
2022/06/22 04:31:27;;;;;;;8.70;4.50;;;;;;;13.96;67.62;96418.89;107278;1274;45392;-80
2022/06/22 04:34:03;;;;;;;5.80;3.70;;;;;;;13.89;67.81;96419.59;107401;1274;43205;-80
2022/06/22 04:36:41;;;;;;;6.90;4.10;;;;;;;13.96;67.98;96415.16;107340;1274;36539;-80
2022/06/22 04:39:20;;;;;;;7.00;3.20;;;;;;;13.99;67.85;96425.48;107299;1274;64022;-80
2022/06/22 04:41:52;;;;;;;7.10;2.90;;;;;;;13.98;67.63;96434.89;107343;1275;31787;-80
2022/06/22 04:44:27;;;;;;;7.80;3.70;;;;;;;13.98;67.72;96436.06;107350;1274;37897;-80
2022/06/22 04:47:06;;;;;;;7.70;3.90;;;;;;;13.91;67.48;96436.81;107331;1275;39090;-79
2022/06/22 04:49:45;;;;;;;5.00;3.00;;;;;;;13.89;67.81;96446.14;107343;1274;33610;-80
2022/06/22 04:52:21;;;;;;;8.90;2.70;;;;;;;13.93;67.47;96445.98;107178;1274;247676;-80
2022/06/22 04:54:56;;;;;;;5.30;3.00;;;;;;;13.95;67.60;96444.35;107202;1274;69147;-81
2022/06/22 04:57:31;;;;;;;5.40;2.90;;;;;;;14.04;67.65;96450.63;107416;1274;32023;-80
2022/06/22 05:00:08;;;;;;;6.50;2.90;;;;;;;14.16;67.84;96451.46;107332;1274;38437;-80
2022/06/22 05:02:42;;;;;;;6.90;3.10;;;;;;;14.27;67.84;96448.14;107305;1274;42936;-80
2022/06/22 05:05:21;;;;;;;5.30;2.70;;;;;;;14.36;67.33;96441.67;107340;1274;46038;-80
2022/06/22 05:07:57;;;;;;;4.20;2.80;;;;;;;14.37;66.72;96444.54;107367;1274;50866;-80
2022/06/22 05:10:37;;;;;;;7.30;3.20;;;;;;;14.47;66.72;96450.80;107399;1274;56551;-80
2022/06/22 05:13:28;;;;;;;5.20;2.70;;;;;;;14.71;66.55;96455.04;107347;1274;36723;-80
2022/06/22 05:16:03;;;;;;;4.70;2.20;;;;;;;15.10;66.35;96457.15;107376;1274;43293;-78
2022/06/22 05:18:38;;;;;;;5.50;2.40;;;;;;;15.45;65.36;96458.91;107319;1274;37849;-80
2022/06/22 05:21:18;;;;;;;4.10;2.50;;;;;;;15.65;64.62;96464.86;107287;1274;36738;-80
2022/06/22 05:23:53;;;;;;;2.70;2.00;;;;;;;15.96;64.30;96462.57;107331;1275;45463;-80
2022/06/22 05:26:28;;;;;;;6.00;2.90;;;;;;;17.47;63.76;96459.77;107371;1274;40679;-80
2022/06/22 05:29:06;;;;;;;3.20;2.20;;;;;;;19.75;59.32;96460.21;107366;1274;66229;-80
2022/06/22 05:31:41;;;;;;;6.20;2.40;;;;;;;21.66;56.32;96455.42;107303;1274;50137;-80
2022/06/22 05:34:16;;;;;;;3.90;2.20;;;;;;;23.12;51.94;96459.81;107345;1274;59751;-81
2022/06/22 05:36:52;;;;;;;4.70;2.00;;;;;;;24.14;49.98;96463.00;107311;1275;33946;-81
2022/06/22 05:39:24;;;;;;;3.50;1.90;;;;;;;25.34;46.37;96459.13;107258;1275;39035;-80
2022/06/22 05:41:57;;;;;;;2.30;1.80;;;;;;;26.08;45.85;96464.27;107416;1274;40139;-81
2022/06/22 05:44:29;;;;;;;3.40;1.70;;;;;;;26.76;42.86;96463.09;107297;1274;75540;-81
2022/06/22 05:47:03;;;;;;;2.80;1.70;;;;;;;27.04;42.55;96468.23;107311;1274;40708;-79
2022/06/22 05:49:44;;;;;;;2.80;1.40;;;;;;;27.80;42.08;96473.14;107243;1274;78776;-80
2022/06/22 05:52:18;;;;;;;3.00;1.50;;;;;;;28.65;40.32;96472.50;107336;1274;34387;-81
2022/06/22 05:54:56;;;;;;;1.60;1.40;;;;;;;29.38;39.83;96470.23;107341;1274;33980;-81
2022/06/22 05:57:36;;;;;;;1.80;1.40;;;;;;;29.94;36.68;96472.19;107349;1275;92072;-81
2022/06/22 06:00:14;;;;;;;2.40;1.30;;;;;;;29.39;36.79;96472.65;107261;1275;40859;-81
2022/06/22 06:02:50;;;;;;;3.80;1.40;;;;;;;29.82;36.54;96470.45;107346;1274;34854;-81
2022/06/22 06:05:27;;;;;;;2.90;1.70;;;;;;;28.72;34.99;96469.14;107307;1274;63604;-81
2022/06/22 06:08:02;;;;;;;3.70;1.70;;;;;;;28.17;35.60;96468.05;107351;1274;57218;-81
2022/06/22 06:10:37;;;;;;;3.40;1.70;;;;;;;28.75;35.58;96472.75;107343;1274;35635;-81
2022/06/22 06:13:21;;;;;;;3.70;1.80;;;;;;;29.44;34.50;96468.33;107384;1274;32891;-82
2022/06/22 06:15:56;;;;;;;3.80;1.60;;;;;;;30.00;34.28;96465.17;107098;1274;100743;-82
2022/06/22 06:18:30;;;;;;;2.40;1.50;;;;;;;31.32;34.65;96458.98;107422;1274;45473;-81
2022/06/22 06:21:07;;;;;;;2.60;1.60;;;;;;;33.24;32.51;96454.98;107262;1274;64296;-81
2022/06/22 06:23:42;;;;;;;1.60;1.20;;;;;;;32.92;29.77;96459.81;107254;1274;76071;-81
2022/06/22 06:29:14;;;;;;;2.90;1.60;;;;;;;33.70;28.83;96459.52;107323;1274;35222;-82
2022/06/22 06:31:58;;;;;;;2.50;1.40;;;;;;;32.88;27.82;96456.14;107346;1274;35052;-81
2022/06/22 06:34:35;;;;;;;2.40;1.80;;;;;;;32.05;29.72;96455.59;107327;1274;36824;-81
2022/06/22 06:37:14;;;;;;;3.20;1.40;;;;;;;34.11;30.13;96461.48;107300;1274;37483;-82
2022/06/22 06:39:51;;;;;;;4.50;1.40;;;;;;;35.63;27.73;96456.77;107307;1274;35632;-82
2022/06/22 06:42:35;;;;;;;1.40;0.90;;;;;;;36.78;28.20;96446.66;107368;1274;33088;-82
2022/06/22 06:45:15;;;;;;;1.90;1.30;;;;;;;38.72;26.94;96447.80;107307;1274;46165;-82
2022/06/22 06:47:52;;;;;;;1.90;1.10;;;;;;;38.79;23.71;96450.56;107332;1275;32254;-82
2022/06/22 06:50:30;;;;;;;2.10;1.10;;;;;;;37.73;25.41;96454.17;107369;1274;34850;-82
2022/06/22 06:53:07;;;;;;;1.30;1.10;;;;;;;39.52;25.38;96445.77;107238;1274;65842;-80
2022/06/22 06:55:45;;;;;;;2.40;1.20;;;;;;;40.67;22.91;96443.40;107310;1274;58325;-80
2022/06/22 06:58:24;;;;;;;1.30;1.00;;;;;;;40.10;23.51;96444.60;107319;1275;36815;-80
2022/06/22 07:00:55;;;;;;;2.00;1.20;;;;;;;40.95;22.26;96440.44;107349;1275;42660;-80
2022/06/22 07:03:29;;;;;;;1.70;1.00;;;;;;;40.65;21.23;96444.23;107422;1275;29438;-80
2022/06/22 07:06:01;;;;;;;1.70;1.00;;;;;;;40.01;21.35;96442.08;107307;1275;50479;-80
2022/06/22 07:08:37;;;;;;;2.40;1.30;;;;;;;40.24;20.56;96446.47;107200;1274;78993;-79
2022/06/22 07:11:15;;;;;;;2.80;1.40;;;;;;;37.43;19.36;96443.80;107332;1275;31985;-80
2022/06/22 07:13:51;;;;;;;2.30;1.50;;;;;;;35.03;21.94;96448.03;107280;1275;63004;-80
2022/06/22 07:16:25;;;;;;;3.10;1.40;;;;;;;35.79;22.66;96446.73;107273;1274;58299;-80
2022/06/22 07:19:00;;;;;;;2.00;1.10;;;;;;;36.81;22.48;96443.83;107424;1274;31957;-82
2022/06/22 07:21:37;;;;;;;1.80;1.40;;;;;;;38.24;21.43;96448.73;107332;1274;49493;-82
2022/06/22 07:24:15;;;;;;;3.20;1.30;;;;;;;38.07;20.38;96445.35;107432;1274;87903;-81
2022/06/22 07:26:55;;;;;;;2.70;1.20;;;;;;;37.85;21.78;96446.21;107342;1275;35182;-81
2022/06/22 07:29:32;;;;;;;3.10;1.80;;;;;;;39.56;21.00;96447.28;107382;1274;55073;-81
2022/06/22 07:32:15;;;;;;;2.80;1.70;;;;;;;40.21;19.43;96441.15;107491;1274;46191;-82
2022/06/22 07:34:51;;;;;;;1.60;1.40;;;;;;;41.33;20.31;96439.40;107447;1275;33589;-83
2022/06/22 07:37:25;;;;;;;1.30;1.20;;;;;;;41.98;18.50;96441.52;107366;1274;31733;-83
2022/06/22 07:40:06;;;;;;;1.90;1.20;;;;;;;41.94;18.37;96438.70;107658;1274;53240;-82
2022/06/22 07:42:37;;;;;;;1.20;1.10;;;;;;;42.61;18.66;96429.13;107598;1274;72816;-83
2022/06/22 07:45:16;;;;;;;1.10;0.90;;;;;;;43.50;17.69;96427.05;107385;1274;32936;-83
2022/06/22 07:47:57;;;;;;;1.00;1.00;;;;;;;43.65;16.97;96419.30;107358;1274;102319;-83
2022/06/22 07:50:32;;;;;;;1.30;1.20;;;;;;;44.04;17.33;96422.63;107702;1274;62734;-83
2022/06/22 07:53:14;;;;;;;1.30;1.10;;;;;;;45.07;16.67;96423.46;107625;1275;43095;-83
2022/06/22 07:55:53;;;;;;;1.70;1.10;;;;;;;44.47;14.27;96430.07;107447;1274;47322;-83
2022/06/22 07:58:31;;;;;;;1.10;1.00;;;;;;;40.45;14.98;96427.40;107457;1274;32839;-82
2022/06/22 08:01:09;;;;;;;1.30;1.10;;;;;;;40.42;16.65;96423.25;107601;1274;89392;-82
2022/06/22 08:03:43;;;;;;;1.40;1.30;;;;;;;42.00;17.09;96421.69;107489;1274;123551;-83
2022/06/22 08:06:20;;;;;;;1.50;1.10;;;;;;;43.94;16.69;96418.44;107655;1275;35977;-82
2022/06/22 08:08:57;;;;;;;1.30;1.20;;;;;;;44.19;15.20;96417.59;107663;1274;31782;-83
2022/06/22 08:11:33;;;;;;;1.80;1.70;;;;;;;43.04;14.57;96418.29;107637;1275;48229;-83
2022/06/22 08:14:10;;;;;;;2.40;1.40;;;;;;;42.88;15.44;96415.63;107637;1274;45456;-83
2022/06/22 08:16:45;;;;;;;1.60;1.50;;;;;;;43.30;14.68;96414.45;107682;1274;31052;-82
2022/06/22 08:19:17;;;;;;;1.60;1.50;;;;;;;42.55;13.77;96419.02;107447;1274;32405;-82
2022/06/22 08:21:53;;;;;;;1.80;1.40;;;;;;;41.81;14.80;96421.74;107236;1275;42559;-80
2022/06/22 08:24:24;;;;;;;1.70;1.60;;;;;;;42.01;15.10;96424.55;107305;1275;33400;-83
2022/06/22 08:26:58;;;;;;;1.80;1.70;;;;;;;42.61;15.19;96424.85;107602;1274;41950;-83
2022/06/22 08:29:32;;;;;;;1.90;1.80;;;;;;;42.84;14.97;96420.05;107676;1274;70744;-83
2022/06/22 08:32:09;;;;;;;1.70;1.60;;;;;;;43.78;14.42;96419.84;107674;1274;37636;-82
2022/06/22 08:34:46;;;;;;;2.00;1.90;;;;;;;42.68;13.76;96419.83;107461;1274;39535;-81
2022/06/22 08:37:24;;;;;;;2.00;1.60;;;;;;;41.95;13.74;96424.16;107329;1274;42481;-83
2022/06/22 08:40:00;;;;;;;1.70;1.60;;;;;;;41.01;13.97;96415.70;107354;1274;42649;-82
2022/06/22 08:42:45;;;;;;;1.60;1.50;;;;;;;40.27;14.28;96412.08;107320;1274;60764;-82
2022/06/22 08:45:35;;;;;;;1.50;1.40;;;;;;;39.84;15.44;96412.17;107499;1275;31703;-82
2022/06/22 08:48:29;;;;;;;2.10;1.00;;;;;;;40.51;15.67;96419.66;107291;1274;34309;-83
2022/06/22 08:51:35;;;;;;;2.30;1.00;;;;;;;39.59;14.47;96424.06;107310;1275;38738;-81
2022/06/22 08:54:40;;;;;;;2.20;0.80;;;;;;;33.46;17.09;96421.86;107324;1274;40755;-82
2022/06/22 08:57:20;;;;;;;4.90;1.40;;;;;;;29.24;20.71;96417.80;107259;1274;47406;-81
2022/06/22 09:00:19;;;;;;;1.80;0.70;;;;;;;26.89;23.46;96426.48;107296;1275;51314;-81
2022/06/22 09:03:19;;;;;;;2.30;0.70;;;;;;;25.89;24.87;96430.52;107269;1275;50033;-81
2022/06/22 09:06:11;;;;;;;;;;;;;;;25.69;25.94;96428.48;107355;1274;35246;-81
2022/06/22 09:09:04;;;;;;;4.20;1.00;;;;;;;25.59;26.54;96421.76;107316;1275;29236;-81
2022/06/22 09:11:38;;;;;;;2.00;1.00;;;;;;;24.99;27.00;96426.23;107219;1275;43032;-81
2022/06/22 09:14:42;;;;;;;1.40;0.90;;;;;;;24.17;27.68;96429.30;107333;1274;33079;-80
2022/06/22 09:17:31;;;;;;;1.90;0.90;;;;;;;23.61;28.55;96432.19;107309;1274;54725;-81
2022/06/22 09:20:25;;;;;;;2.40;1.10;;;;;;;23.66;29.12;96430.23;107306;1274;42529;-80
2022/06/22 09:23:02;;;;;;;3.40;1.10;;;;;;;23.23;29.26;96427.53;107462;1274;27479;-81
2022/06/22 09:25:45;;;;;;;1.90;1.00;;;;;;;22.80;30.41;96425.86;107268;1274;42881;-80
2022/06/22 09:28:28;;;;;;;3.00;1.30;;;;;;;22.94;30.63;96437.38;107298;1274;33084;-80
2022/06/22 09:31:18;;;;;;;1.40;0.90;;;;;;;22.99;32.12;96432.59;107460;1274;29597;-80
2022/06/22 09:34:03;;;;;;;9.80;8.70;;;;;;;23.14;31.00;96432.27;107284;1274;35113;-81
2022/06/22 09:36:57;;;;;;;5.40;3.50;;;;;;;22.97;30.84;96429.16;107375;1275;31851;-80
2022/06/22 09:39:45;;;;;;;1.80;0.90;;;;;;;22.63;30.75;96432.73;107400;1274;35038;-80
2022/06/22 09:46:01;;;;;;;2.50;1.10;;;;;;;22.42;33.24;96432.22;103601;1311;638413;-81
2022/06/22 09:48:55;;;;;;;2.50;1.00;;;;;;;23.28;32.47;96421.11;106342;1284;101665;-81
2022/06/22 09:51:50;;;;;;;1.90;1.30;;;;;;;23.82;31.67;96417.37;106537;1284;102888;-81
2022/06/22 09:57:47;;;;;;;1.50;1.10;;;;;;;22.72;31.43;96409.58;107192;1275;112024;-80
2022/06/22 10:00:22;;;;;;;3.50;1.60;;;;;;;22.24;32.78;96410.05;107260;1271;249455;-81
2022/06/22 10:03:43;;;;;;;2.50;1.20;;;;;;;22.30;33.89;96408.94;107441;1271;102964;-81
2022/06/22 10:06:33;;;;;;;3.30;1.30;;;;;;;22.15;34.03;96409.04;107453;1271;49108;-80
2022/06/22 10:09:28;;;;;;;1.70;1.30;;;;;;;22.15;33.91;96413.05;107521;1272;37762;-80
2022/06/22 10:12:13;;;;;;;1.30;1.00;;;;;;;22.26;33.83;96413.49;107503;1272;35558;-81
2022/06/22 10:15:01;;;;;;;2.50;1.40;;;;;;;22.42;32.73;96412.70;107611;1270;35659;-80
2022/06/22 10:17:42;;;;;;;4.10;1.60;;;;;;;22.61;33.54;96412.25;107482;1272;34994;-79
2022/06/22 10:20:34;;;;;;;2.90;1.20;;;;;;;22.95;33.49;96405.04;107547;1271;36686;-80
2022/06/22 10:23:18;;;;;;;2.60;1.40;;;;;;;23.40;33.70;96404.67;107513;1271;41623;-79
2022/06/22 10:26:05;;;;;;;3.50;1.40;;;;;;;23.64;34.59;96399.83;107535;1271;34418;-80
2022/06/22 10:29:13;;;;;;;2.20;1.60;;;;;;;23.69;33.65;96405.69;107543;1271;32371;-80
2022/06/22 10:31:59;;;;;;;2.30;1.40;;;;;;;23.09;33.44;96402.13;107563;1269;52865;-80
2022/06/22 10:34:46;;;;;;;2.90;1.50;;;;;;;22.94;34.30;96402.63;107644;1269;31561;-79
2022/06/22 10:37:50;;;;;;;2.80;1.50;;;;;;;22.95;34.00;96404.65;107658;1270;34353;-80
2022/06/22 10:46:45;;;;;;;2.60;1.50;;;;;;;21.75;34.17;96396.38;107659;1270;40458;-80
2022/06/22 10:49:43;;;;;;;3.30;1.80;;;;;;;22.00;35.58;96394.64;107660;1270;51819;-80
2022/06/22 10:52:25;;;;;;;2.10;1.40;;;;;;;22.35;35.52;96387.95;107593;1269;46751;-80
2022/06/22 10:55:22;;;;;;;4.10;1.80;;;;;;;22.74;35.65;96383.67;107656;1269;50173;-80
2022/06/22 10:58:13;;;;;;;2.70;1.60;;;;;;;22.72;35.52;96378.70;107638;1269;36614;-80
2022/06/22 11:01:01;;;;;;;2.40;1.50;;;;;;;22.28;36.22;96386.44;107677;1270;46141;-80
2022/06/22 11:04:09;;;;;;;4.10;1.70;;;;;;;22.13;35.65;96390.03;107611;1269;68424;-79
2022/06/22 11:07:28;;;;;;;3.50;1.40;;;;;;;22.08;35.94;96387.09;107454;1269;62570;-80
2022/06/22 11:10:29;;;;;;;5.20;1.60;;;;;;;22.09;36.31;96390.87;107432;1274;50446;-80
2022/06/22 11:13:25;;;;;;;2.50;1.30;;;;;;;22.05;36.99;96395.27;107328;1274;38905;-80
2022/06/22 11:16:13;;;;;;;3.10;1.80;;;;;;;22.48;37.26;96394.73;107641;1269;73814;-80
2022/06/22 11:19:11;;;;;;;3.50;1.50;;;;;;;22.61;36.29;96398.27;107614;1268;40783;-79
2022/06/22 11:22:04;;;;;;;2.90;1.50;;;;;;;22.45;36.18;96400.79;107500;1270;35647;-80
2022/06/22 11:25:09;;;;;;;4.00;1.80;;;;;;;22.31;36.56;96402.31;107596;1269;46677;-79
2022/06/22 11:30:53;;;;;;;4.20;1.70;;;;;;;22.55;35.91;96398.19;107638;1269;36283;-79
2022/06/22 11:33:48;;;;;;;2.60;1.60;;;;;;;22.52;36.47;96393.11;107486;1269;74021;-80
2022/06/22 11:36:30;;;;;;;3.80;1.90;;;;;;;22.71;36.21;96393.96;107581;1270;39200;-80
2022/06/22 11:39:27;;;;;;;4.00;1.70;;;;;;;22.51;36.07;96388.08;107640;1269;39107;-79
2022/06/22 11:42:17;;;;;;;3.50;1.80;;;;;;;22.75;37.20;96390.88;107701;1270;36444;-80
2022/06/22 11:48:15;;;;;;;5.30;1.90;;;;;;;22.98;36.28;96389.40;107597;1268;58428;-80
2022/06/22 11:51:03;;;;;;;3.40;1.80;;;;;;;23.08;35.92;96394.11;107557;1270;53610;-79
2022/06/22 11:54:04;;;;;;;3.10;1.70;;;;;;;22.94;36.16;96385.08;107634;1270;35063;-79
2022/06/22 11:56:42;;;;;;;;;;;;;;;22.55;36.99;96391.16;107507;1271;62642;-79
2022/06/22 11:59:30;;;;;;;5.20;2.00;;;;;;;22.37;36.51;96387.23;107624;1270;41983;-79
2022/06/22 12:02:50;;;;;;;4.00;1.90;;;;;;;22.57;37.70;96387.95;107651;1270;44842;-79
2022/06/22 12:05:45;;;;;;;5.20;2.10;;;;;;;22.76;36.17;96389.33;107313;1273;37058;-80
2022/06/22 12:08:30;;;;;;;4.20;1.80;;;;;;;22.82;35.94;96392.15;107270;1274;33119;-80
2022/06/22 12:11:14;;;;;;;5.70;1.90;;;;;;;23.01;36.66;96395.99;107432;1271;73234;-79
2022/06/22 12:17:14;;;;;;;5.90;2.00;;;;;;;23.30;35.38;96398.51;107578;1270;51769;-80
2022/06/22 12:19:55;;;;;;;5.30;1.90;;;;;;;23.44;35.92;96394.83;107602;1271;56619;-80
2022/06/22 12:22:33;;;;;;;;;;;;;;;23.59;35.76;96400.00;107710;1270;45714;-80
2022/06/22 12:25:23;;;;;;;3.90;1.90;;;;;;;23.73;34.63;96402.48;107686;1271;34301;-80
2022/06/22 12:28:04;;;;;;;3.40;1.20;;;;;;;23.39;34.06;96395.85;107685;1270;39989;-80
2022/06/22 12:30:48;;;;;;;2.70;1.50;;;;;;;22.97;34.07;96386.38;107667;1271;53573;-80
2022/06/22 12:33:25;;;;;;;2.50;1.30;;;;;;;22.75;34.27;96386.55;107637;1270;39393;-80
2022/06/22 12:36:03;;;;;;;2.90;1.30;;;;;;;22.66;34.61;96387.86;107723;1271;39576;-79
2022/06/22 12:38:39;;;;;;;2.50;1.30;;;;;;;22.68;35.16;96385.44;105944;1269;2276634;-78
2022/06/22 12:41:24;;;;;;;4.00;1.70;;;;;;;22.81;34.82;96381.33;107631;1271;40900;-80
2022/06/22 12:44:28;;;;;;;1.80;0.90;;;;;;;22.89;34.57;96378.75;107634;1270;35873;-80
2022/06/22 12:47:27;;;;;;;3.00;1.10;;;;;;;22.67;33.58;96379.61;107539;1271;95085;-78
2022/06/22 12:50:20;;;;;;;3.30;1.20;;;;;;;22.77;34.47;96385.96;107556;1271;32339;-80
2022/06/22 12:52:58;;;;;;;3.40;1.30;;;;;;;23.12;34.84;96386.59;107537;1271;37689;-80
2022/06/22 12:55:33;;;;;;;4.60;1.30;;;;;;;23.12;34.47;96383.03;107515;1271;92964;-80
2022/06/22 12:58:10;;;;;;;5.40;1.40;;;;;;;23.16;34.73;96382.55;107473;1271;37678;-79
2022/06/22 13:00:43;;;;;;;6.70;1.30;;;;;;;23.42;35.76;96381.58;107570;1270;75007;-79
2022/06/22 13:03:20;;;;;;;3.70;1.30;;;;;;;23.67;35.52;96373.73;107373;1271;121788;-80